Meteo Giornale » Osservazioni meteo Francia » Grenoble-St Geoirs

ore: 19:00 - Osservazioni Meteo Grenoble-St Geoirs
Lat. 45° 22' N Lon. 5° 20' E Alt. 384 metri s.l.m.

sereno Europe/Paris

26 °C

Sereno

Temp. 24 Ore

12 °C

27 °C

Ovest

11.1 Km/h

Dew point 10 °C

Umidità 36 %

Visibilità  10 Km

Il sole sorge alle ore 05:48

Il sole tramonta alle ore 21:31

Data e Ora Cielo e Fenomeni T °C DP °C Um. % Pres. hPa Vis. km Vento km/h
Oggi h: 19:00 sereno Sereno 26 10 36 1012 10 O 11.1
Oggi h: 18:30 sereno Sereno 26 10 36 1012 10 SO 20.3
Oggi h: 18:00 sereno Sereno 27 11 36 1012 10 SO 22.2
Oggi h: 17:30 sereno Sereno 26 11 39 1012 10 O/SO 18.5
Oggi h: 17:00 sereno Sereno 26 11 39 1012 10 O/SO 16.7
Oggi h: 16:30 sereno Sereno 27 11 36 1012 10 SO 20.3
Oggi h: 16:00 sereno Sereno 27 11 36 1012 10 S/SO 20.3
Oggi h: 15:30 sereno Sereno 27 12 39 1013 10 SO 22.2
Oggi h: 15:00 sereno Sereno 27 13 42 1013 10 SO 22.2
Oggi h: 14:30 sereno Sereno 26 13 44 1013 10 SO 24
Oggi h: 14:00 sereno Sereno 26 12 41 1013 10 SO 25.9
Oggi h: 13:30 sereno Sereno 26 11 39 1013 10 SO 22.2
Oggi h: 13:00 sereno Sereno 26 13 44 1013 10 SO 22.2
Oggi h: 12:30 sereno Sereno 25 12 44 1014 10 S/SO 16.7
Oggi h: 12:00 sereno Sereno 25 12 44 1014 10 S 13
Oggi h: 11:30 sereno Sereno 24 11 43 1014 10 S/SO 14.8
Oggi h: 11:00 sereno Sereno 24 12 47 1014 10 N 5.5
Oggi h: 10:30 sereno Sereno 23 12 49 1014 10 SE 9.3
Oggi h: 10:00 sereno Sereno 22 11 49 1014 10 SE 11.1
Oggi h: 09:30 sereno Sereno 20 14 68 1015 10 E 13
Oggi h: 09:00 sereno Sereno 17 13 77 1015 10 E 14.8
Oggi h: 08:30 molto_nuvoloso Molto Nuvoloso 17 12 72 1015 10 E/SE 18.5
Oggi h: 08:00 sereno Sereno 18 11 63 1015 10 N 5.5
Oggi h: 07:30 sereno Sereno 17 12 72 1015 10 NO 7.4
Oggi h: 07:00 sereno Sereno 15 12 82 1014 10 N 3.7
Oggi h: 06:00 sereno Sereno 13 10 81 1014 10 E/NE 7.4
Oggi h: 05:30 sereno Sereno 12 10 87 1014 10 N 5.5
Oggi h: 05:00 sereno Sereno 13 9 76 1013 10 E 11.1
Oggi h: 04:30 sereno Sereno 13 9 76 1013 10 E/NE 7.4
Oggi h: 03:30 sereno Sereno 14 10 76 1014 10 E/NE 7.4
Oggi h: 03:00 sereno Sereno 15 9 67 1014 10 N 5.5
Oggi h: 02:30 sereno Sereno 15 10 72 1014 10 N 5.5
Oggi h: 02:00 sereno Sereno 17 9 59 1014 10 N 3.7
Oggi h: 01:30 sereno Sereno 19 7 45 1014 10 S 9.3
Oggi h: 01:00 sereno Sereno 20 8 45 1014 10 S/SO 13
Oggi h: 00:30 sereno Sereno 20 8 45 1015 10 S/SO 13
Oggi h: 00:00 sereno Sereno 21 9 46 1015 10 S/SO 16.7
Ieri h: 23:30 sereno Sereno 21 9 46 1015 10 S/SO 16.7
Ieri h: 23:00 sereno Sereno 22 8 40 1015 10 S/SO 14.8
Ieri h: 22:30 sereno Sereno 23 8 38 1014 10 S 13
Ieri h: 22:00 sereno Sereno 24 7 33 1014 10 SO 16.7
Ieri h: 21:30 sereno Sereno 24 8 35 1014 10 N 11.1
Ieri h: 21:00 sereno Sereno 24 10 41 1014 10 O 13
Ieri h: 20:30 sereno Sereno 25 10 38 1014 10 O 11.1
Ieri h: 20:00 sereno Sereno 26 9 34 1014 10 O/SO 16.7